19h48 EDT


 

Suivi/Infos de l'aéroport


-ou-


 

Suivi des vols en temps réel9Y-TTC ✈ 01-05-2013 ✈ TTCP / TAB - TTPP / POS

Thumbnail
9Y-TTC / BWA1541
Unknown Owner · Trinidad & Tobago
Crown Point ( – info)
Scarborough, Tobago TT
Piarco Int'l ( – info)
Port-d'Espagne TT
Prévu: 21h45 AST
Prévu: 21h50 AST
Durée: 18 minutes
mercredi, 1 mai 2013
Statut Arrivé il y a plus d'un an. (journal de vol & graphique)
Avion Aerospatiale ATR-42-300 (bi-turbopropulseur) (AT43 – photos)
Vitesse Plan de vol: 532 kts (graphique)
Distance En ligne droite 83 km
Une partie au moins de ce vol se déroule hors de la zone de services primaire de FlightAware. Pour en savoir plus sur la couverture et la zone de services de FlightAware.
JOURNAL DE L'ACTIVITE
Vous voulez une recherche complète sur l'historique de 9Y-TTC depuis 1998? Achetez maintenant. Recevez-le dans l'heure.
Date Avion Provenance Destination Départ Arrivée Durée
31-07-2014 AT43Crown Point ()Piarco Int'l () 13h47 AST 14h09 AST 0:22
31-07-2014 AT43Piarco Int'l ()Crown Point () 12h52 AST 13h06 AST 0:13
31-07-2014 AT43Crown Point ()Piarco Int'l () 11h37 AST 11h50 AST 0:12
31-07-2014 AT43Piarco Int'l ()Crown Point () 10h39 AST 10h52 AST 0:12
31-07-2014 AT43Crown Point ()Piarco Int'l () 09h29 AST 09h43 AST 0:13
31-07-2014 AT43Piarco Int'l ()Crown Point () 08h32 AST 08h48 AST 0:15
31-07-2014 AT43Crown Point ()Piarco Int'l () 07h27 AST 07h46 AST 0:19
31-07-2014 AT43Piarco Int'l ()Crown Point () 06h37 AST 06h53 AST 0:16
30-07-2014 AT43Int'l Grantley-Adams ()Piarco Int'l () 20h56 AST 21h43 AST 0:47
30-07-2014 AT43Piarco Int'l ()Int'l Grantley-Adams () 19h24 AST 20h16 AST 0:52
30-07-2014 AT43George F. L. Charles ()Piarco Int'l () 15h32 AST 16h27 AST 0:55
30-07-2014 AT43Piarco Int'l ()George F. L. Charles () 13h56 AST 14h54 AST 0:58
30-07-2014 AT43Crown Point ()Piarco Int'l () 12h39 AST 12h58 AST 0:19
30-07-2014 AT43Piarco Int'l ()Crown Point () 11h52 AST 12h08 AST 0:16
30-07-2014 AT43Crown Point ()Piarco Int'l () 10h46 AST 11h08 AST 0:22
30-07-2014 AT43Piarco Int'l ()Crown Point () 09h51 AST 10h05 AST 0:13
30-07-2014 AT43Crown Point ()Piarco Int'l () 08h30 AST 08h49 AST 0:19
30-07-2014 AT43Piarco Int'l ()Crown Point () 07h44 AST 07h57 AST 0:12
30-07-2014 AT43Crown Point ()Piarco Int'l () 06h45 AST 07h05 AST 0:20
30-07-2014 AT43Piarco Int'l ()Crown Point () 05h57 AST 06h11 AST 0:13
29-07-2014 AT43Point Salines Int'l ()Piarco Int'l () 20h38 AST 21h07 AST 0:29
29-07-2014 AT43Piarco Int'l ()Point Salines Int'l () 19h26 AST 19h59 AST 0:32
29-07-2014 AT43Crown Point ()Piarco Int'l () 13h57 AST 14h16 AST 0:19
29-07-2014 AT43Piarco Int'l ()Crown Point () 12h35 AST 13h25 AST 0:50
29-07-2014 AT43Int'l Maiquetía ~ Simón Bolívar ()Piarco Int'l () 09h46 VET 11h46 AST 1:30
29-07-2014 AT43Piarco Int'l ()Int'l Maiquetía ~ Simón Bolívar () 07h41 AST 08h45 VET 1:33
29-07-2014 AT43Crown Point ()Piarco Int'l () 02h38 AST 02h56 AST 0:18
29-07-2014 AT43Piarco Int'l ()Crown Point () 01h50 AST 02h07 AST 0:16
29-07-2014 AT43Crown Point ()Piarco Int'l () 01h00 AST 01h18 AST 0:18
28-07-2014 AT43Piarco Int'l ()Crown Point () 23h57 AST 00h14 AST (+1) 0:17
28-07-2014 AT43Crown Point ()Piarco Int'l () 23h00 AST 10h33 AST (+1) (?) 11:32
28-07-2014 AT43Piarco Int'l ()Crown Point () 22h04 AST 22h20 AST 0:15
28-07-2014 AT43Crown Point ()Piarco Int'l () 20h54 AST 21h05 AST 0:10
28-07-2014 AT43Piarco Int'l ()Crown Point () 19h44 AST 20h02 AST 0:17
28-07-2014 AT43Piarco Int'l ()Crown Point () 17h16 AST 17h27 AST (?) 0:10
28-07-2014 AT43Crown Point ()Piarco Int'l () 15h53 AST 16h12 AST 0:19
28-07-2014 AT43Piarco Int'l ()Crown Point () 15h05 AST 15h19 AST 0:13
28-07-2014 AT43Crown Point ()Piarco Int'l () 13h23 AST 13h44 AST 0:21
28-07-2014 AT43Piarco Int'l ()Crown Point () 12h33 AST 12h46 AST 0:12
28-07-2014 AT43Crown Point ()Piarco Int'l () 11h27 AST 11h44 AST 0:17
28-07-2014 AT43Piarco Int'l ()Crown Point () 10h33 AST 10h46 AST 0:12
28-07-2014 AT43Crown Point ()Piarco Int'l () 09h12 AST 09h32 AST 0:20
28-07-2014 AT43Piarco Int'l ()Crown Point () 08h25 AST 08h41 AST 0:15
28-07-2014 AT43Crown Point ()Piarco Int'l () 07h21 AST 07h35 AST 0:14
28-07-2014 AT43Piarco Int'l ()Crown Point () 06h28 AST 06h46 AST 0:18
27-07-2014 AT43Crown Point ()Piarco Int'l () 22h09 AST 22h22 AST 0:12
27-07-2014 AT43Piarco Int'l ()Crown Point () 21h10 AST 21h26 AST 0:15
27-07-2014 AT43Crown Point ()Piarco Int'l () 19h53 AST 20h07 AST 0:13
27-07-2014 AT43Piarco Int'l ()Crown Point () 18h50 AST 19h09 AST 0:19
27-07-2014 AT43Crown Point ()Piarco Int'l () 17h45 AST 18h05 AST 0:20
27-07-2014 AT43Piarco Int'l ()Crown Point () 16h56 AST 17h11 AST 0:14
27-07-2014 AT43Crown Point ()Piarco Int'l () 13h45 AST 14h04 AST 0:19
27-07-2014 AT43Piarco Int'l ()Crown Point () 12h49 AST 13h04 AST 0:15
27-07-2014 AT43Crown Point ()Piarco Int'l () 11h44 AST 12h02 AST 0:18
27-07-2014 AT43Piarco Int'l ()Crown Point () 10h43 AST 10h58 AST 0:15
27-07-2014 AT43Crown Point ()Piarco Int'l () 09h30 AST 09h47 AST 0:17
27-07-2014 AT43Piarco Int'l ()Crown Point () 08h38 AST 08h52 AST 0:13
27-07-2014 AT43Crown Point ()Piarco Int'l () 07h22 AST 07h40 AST 0:18
27-07-2014 AT43Piarco Int'l ()Crown Point () 06h25 AST 06h40 AST 0:15
26-07-2014 AT43Crown Point ()Piarco Int'l () 20h18 AST 20h36 AST 0:18
26-07-2014 AT43Piarco Int'l ()Crown Point () 19h32 AST 19h52 AST 0:20
26-07-2014 AT43Crown Point ()Piarco Int'l () 18h38 AST 18h55 AST 0:17
26-07-2014 AT43Piarco Int'l ()Crown Point () 17h50 AST 18h06 AST 0:15
26-07-2014 AT43Crown Point ()Piarco Int'l () 16h44 AST 17h02 AST 0:18
26-07-2014 AT43Piarco Int'l ()Crown Point () 16h00 AST 16h16 AST 0:15
26-07-2014 AT43Crown Point ()Piarco Int'l () 14h52 AST 15h14 AST 0:22
26-07-2014 AT43Piarco Int'l ()Crown Point () 14h01 AST 14h15 AST 0:13
26-07-2014 AT43Crown Point ()Piarco Int'l () 12h45 AST 13h08 AST 0:23
26-07-2014 AT43Piarco Int'l ()Crown Point () 11h56 AST 12h11 AST 0:15
26-07-2014 AT43Crown Point ()Piarco Int'l () 10h48 AST 11h10 AST 0:22
26-07-2014 AT43Piarco Int'l ()Crown Point () 09h55 AST 10h12 AST 0:16
26-07-2014 AT43Int'l Grantley-Adams ()Piarco Int'l () 07h52 AST 08h47 AST 0:55
26-07-2014 AT43Piarco Int'l ()Int'l Grantley-Adams () 06h22 AST 07h15 AST 0:53
25-07-2014 AT43Crown Point ()Piarco Int'l () 22h43 AST 23h02 AST 0:18
25-07-2014 AT43Piarco Int'l ()Crown Point () 21h46 AST 22h05 AST 0:18
25-07-2014 AT43Point Salines Int'l ()Piarco Int'l () 20h24 AST 20h44 AST 0:19
25-07-2014 AT43Piarco Int'l ()Point Salines Int'l () 19h15 AST 19h44 AST 0:28
25-07-2014 AT43Crown Point ()Piarco Int'l () 17h56 AST 18h16 AST 0:20
25-07-2014 AT43Piarco Int'l ()Crown Point () 17h08 AST 17h24 AST 0:15
25-07-2014 AT43Crown Point ()Piarco Int'l () 13h59 AST 14h20 AST 0:21
25-07-2014 AT43Piarco Int'l ()Crown Point () 13h02 AST 13h18 AST 0:15
25-07-2014 AT43Int'l Maiquetía ~ Simón Bolívar ()Piarco Int'l () 09h30 VET 11h35 AST 1:35
25-07-2014 AT43Piarco Int'l ()Int'l Maiquetía ~ Simón Bolívar () 07h13 AST 08h14 VET 1:30
24-07-2014 AT43Crown Point ()Piarco Int'l () 19h35 AST 19h56 AST 0:21
24-07-2014 AT43Piarco Int'l ()Crown Point () 18h43 AST 19h01 AST 0:17
24-07-2014 AT43Crown Point ()Piarco Int'l () 17h39 AST 17h59 AST 0:20
24-07-2014 AT43Piarco Int'l ()Crown Point () 16h44 AST 17h00 AST 0:15
24-07-2014 AT43Crown Point ()Piarco Int'l () 15h33 AST 15h53 AST 0:20
24-07-2014 AT43Piarco Int'l ()Crown Point () 14h39 AST 14h53 AST 0:13
24-07-2014 AT43Crown Point ()Piarco Int'l () 13h22 AST 13h40 AST 0:18
24-07-2014 AT43Piarco Int'l ()Crown Point () 12h27 AST 12h43 AST 0:16
24-07-2014 AT43Crown Point ()Piarco Int'l () 11h18 AST 11h37 AST 0:19
24-07-2014 AT43Piarco Int'l ()Crown Point () 10h19 AST 10h35 AST 0:16
24-07-2014 AT43Crown Point ()Piarco Int'l () 09h10 AST 09h28 AST 0:18
24-07-2014 AT43Piarco Int'l ()Crown Point () 08h16 AST 08h31 AST 0:15
24-07-2014 AT43Crown Point ()Piarco Int'l () 07h15 AST 07h37 AST 0:22
24-07-2014 AT43Piarco Int'l ()Crown Point () 06h24 AST 06h40 AST 0:15
24-07-2014 AT43Crown Point ()Piarco Int'l () 01h29 AST 01h47 AST 0:18
24-07-2014 AT43Piarco Int'l ()Crown Point () 00h33 AST 00h48 AST 0:14
Les membres inscrits (l'inscription est gratuite et facile!) voient 4 months d'historique. S'inscrire